Time;durP1;ratioP1;P1;durP2;ratioP2;P2;SDS_P1;SDS_P2;PMS_P1;PMS_P2;Temp;Humidity;BMP_temperature;BMP_pressure;BME280_temperature;BME280_humidity;BME280_pressure;Samples;Min_cycle;Max_cycle;Signal;HPM_P1;HPM_P2
2022/03/25 00:00:39;;;;;;;80.18;38.70;;;4.90;99.90;;;;;;5022407;28;20223;-46
2022/03/25 00:03:06;;;;;;;80.65;40.83;;;4.90;99.90;;;;;;5026950;28;20197;-49
2022/03/25 00:05:34;;;;;;;57.47;34.38;;;4.80;99.90;;;;;;5030605;28;20204;-49
2022/03/25 00:08:03;;;;;;;60.72;34.80;;;4.80;99.90;;;;;;5030143;28;20208;-48
2022/03/25 00:10:31;;;;;;;59.80;33.50;;;4.80;99.90;;;;;;5028115;28;20446;-47
2022/03/25 00:13:00;;;;;;;62.13;34.00;;;4.80;99.90;;;;;;5023380;28;20250;-47
2022/03/25 00:15:28;;;;;;;61.40;35.58;;;4.80;99.90;;;;;;5022556;28;20207;-46
2022/03/25 00:17:55;;;;;;;59.83;36.28;;;4.80;99.90;;;;;;5021439;28;20218;-49
2022/03/25 00:20:22;;;;;;;64.03;36.20;;;4.80;99.90;;;;;;5022181;28;20233;-49
2022/03/25 00:22:49;;;;;;;55.63;33.97;;;4.70;99.90;;;;;;5022017;28;20204;-47
2022/03/25 00:25:17;;;;;;;61.95;34.72;;;4.70;99.90;;;;;;5022274;28;20239;-49
2022/03/25 00:27:45;;;;;;;65.70;34.53;;;4.60;99.90;;;;;;5021661;28;20201;-47
2022/03/25 00:30:14;;;;;;;54.30;31.98;;;4.60;99.90;;;;;;5022043;28;20590;-47
2022/03/25 00:32:42;;;;;;;57.45;33.63;;;4.60;99.90;;;;;;5021557;28;20208;-47
2022/03/25 00:35:10;;;;;;;56.92;33.38;;;4.50;99.90;;;;;;5021936;28;20208;-46
2022/03/25 00:37:38;;;;;;;52.13;32.42;;;4.60;99.90;;;;;;5021530;28;20220;-47
2022/03/25 00:40:06;;;;;;;45.70;29.27;;;4.50;99.90;;;;;;5021769;28;20287;-46
2022/03/25 00:42:33;;;;;;;56.45;31.83;;;4.60;99.90;;;;;;5021999;28;20574;-45
2022/03/25 00:45:05;;;;;;;57.05;32.53;;;4.60;99.90;;;;;;5022150;28;20239;-46
2022/03/25 00:47:36;;;;;;;49.65;31.67;;;4.50;99.90;;;;;;5022318;28;20276;-46
2022/03/25 00:50:04;;;;;;;54.67;32.90;;;4.50;99.90;;;;;;5021794;28;20248;-46
2022/03/25 00:52:31;;;;;;;57.25;32.25;;;4.50;99.90;;;;;;5022505;28;20227;-46
2022/03/25 00:54:59;;;;;;;63.95;34.60;;;4.40;99.90;;;;;;5021429;28;20208;-45
2022/03/25 00:57:27;;;;;;;56.95;32.67;;;4.30;99.90;;;;;;5022169;28;20271;-45
2022/03/25 00:59:54;;;;;;;54.75;34.03;;;4.30;99.90;;;;;;5020816;28;20278;-47
2022/03/25 01:02:22;;;;;;;70.57;37.10;;;4.30;99.90;;;;;;5021445;28;20271;-45
2022/03/25 01:04:50;;;;;;;59.35;30.60;;;4.20;99.90;;;;;;5021258;28;20200;-49
2022/03/25 01:07:18;;;;;;;63.22;34.90;;;4.20;99.90;;;;;;5021432;28;20246;-47
2022/03/25 01:09:45;;;;;;;57.20;34.45;;;4.20;99.90;;;;;;5019681;28;20216;-48
2022/03/25 01:12:13;;;;;;;59.50;33.97;;;4.10;99.90;;;;;;5021386;28;20208;-49
2022/03/25 01:14:40;;;;;;;66.93;32.22;;;4.10;99.90;;;;;;5021709;28;20403;-48
2022/03/25 01:17:12;;;;;;;64.28;33.47;;;4.10;99.90;;;;;;5021210;28;20211;-47
2022/03/25 01:19:41;;;;;;;57.85;33.30;;;4.20;99.90;;;;;;5021152;28;20307;-48
2022/03/25 01:22:08;;;;;;;56.85;35.97;;;4.10;99.90;;;;;;5020712;28;20538;-45
2022/03/25 01:24:35;;;;;;;56.47;32.88;;;4.10;99.90;;;;;;5021056;28;20238;-49
2022/03/25 01:27:04;;;;;;;54.55;34.00;;;4.10;99.90;;;;;;5020775;28;20199;-47
2022/03/25 01:29:31;;;;;;;66.93;33.80;;;4.00;99.90;;;;;;5024290;28;20216;-45
2022/03/25 01:31:59;;;;;;;54.35;33.58;;;4.00;99.90;;;;;;5028998;28;20203;-49
2022/03/25 01:34:26;;;;;;;59.50;34.78;;;4.00;99.90;;;;;;5022232;28;20418;-49
2022/03/25 01:36:53;;;;;;;63.00;34.40;;;3.90;99.90;;;;;;5021111;28;20449;-47
2022/03/25 01:39:20;;;;;;;63.92;32.60;;;3.90;99.90;;;;;;5020808;28;20224;-47
2022/03/25 01:41:47;;;;;;;51.33;31.35;;;3.90;99.90;;;;;;5021021;28;20223;-47
2022/03/25 01:44:25;;;;;;;61.35;34.20;;;3.90;99.90;;;;;;5020751;28;20240;-46
2022/03/25 01:46:55;;;;;;;60.63;34.70;;;3.90;99.90;;;;;;5020430;28;20455;-46
2022/03/25 01:49:22;;;;;;;55.17;32.33;;;4.00;99.90;;;;;;5020856;28;20228;-47
2022/03/25 01:51:52;;;;;;;56.55;34.72;;;3.90;99.90;;;;;;5020599;28;20258;-46
2022/03/25 01:54:25;;;;;;;72.10;32.80;;;3.80;99.90;;;;;;5020605;28;20270;-48
2022/03/25 01:57:05;;;;;;;55.13;34.60;;;3.90;99.90;;;;;;5021013;28;20259;-46
2022/03/25 01:59:33;;;;;;;67.15;34.90;;;3.80;99.90;;;;;;5020670;28;20222;-46
2022/03/25 02:02:07;;;;;;;61.22;35.00;;;3.90;99.90;;;;;;5018960;28;20227;-46
2022/03/25 02:04:35;;;;;;;61.92;37.63;;;3.80;99.90;;;;;;5020772;28;20248;-49
2022/03/25 02:07:03;;;;;;;53.95;32.55;;;3.80;99.90;;;;;;5019980;28;20528;-49
2022/03/25 02:09:31;;;;;;;73.03;36.22;;;3.70;99.90;;;;;;5020817;28;20223;-47
2022/03/25 02:11:59;;;;;;;65.75;32.40;;;3.60;99.90;;;;;;5020437;28;20499;-46
2022/03/25 02:14:27;;;;;;;74.07;37.30;;;3.60;99.90;;;;;;5020464;28;20215;-45
2022/03/25 02:16:54;;;;;;;54.83;34.75;;;3.50;99.90;;;;;;5019996;28;20219;-47
2022/03/25 02:19:24;;;;;;;66.25;34.95;;;3.50;99.90;;;;;;5020576;28;20229;-47
2022/03/25 02:21:52;;;;;;;62.90;36.50;;;3.40;99.90;;;;;;5022437;28;20220;-46
2022/03/25 02:24:19;;;;;;;50.80;30.25;;;3.40;99.90;;;;;;5025077;28;20502;-47
2022/03/25 02:26:46;;;;;;;58.28;35.70;;;3.40;99.90;;;;;;5020584;28;20202;-49
2022/03/25 02:29:19;;;;;;;53.00;32.95;;;3.40;99.90;;;;;;5020257;28;20223;-47
2022/03/25 02:31:52;;;;;;;57.33;34.90;;;3.40;99.90;;;;;;5019852;28;20513;-46
2022/03/25 02:34:20;;;;;;;54.35;33.88;;;3.30;99.90;;;;;;5019864;28;20278;-49
2022/03/25 02:36:47;;;;;;;59.53;34.25;;;3.30;99.90;;;;;;5019583;28;20211;-46
2022/03/25 02:39:16;;;;;;;64.53;34.35;;;3.30;99.90;;;;;;5019315;28;20285;-46
2022/03/25 02:41:43;;;;;;;59.85;33.90;;;3.20;99.90;;;;;;5022513;28;20220;-47
2022/03/25 02:44:11;;;;;;;46.20;31.27;;;3.20;99.90;;;;;;5023813;28;20394;-46
2022/03/25 02:46:39;;;;;;;62.78;34.88;;;3.10;99.90;;;;;;5024193;28;20552;-50
2022/03/25 02:49:06;;;;;;;60.45;34.85;;;3.10;99.90;;;;;;5023799;28;20430;-46
2022/03/25 02:51:33;;;;;;;58.17;35.40;;;3.10;99.90;;;;;;5024014;28;20209;-48
2022/03/25 02:54:00;;;;;;;56.90;33.05;;;3.10;99.90;;;;;;5022779;28;20203;-47
2022/03/25 02:56:28;;;;;;;61.20;37.63;;;3.10;99.90;;;;;;5017238;28;20218;-46
2022/03/25 02:58:56;;;;;;;63.33;35.58;;;3.10;99.90;;;;;;5023687;28;20415;-45
2022/03/25 03:01:23;;;;;;;52.85;33.53;;;3.00;99.90;;;;;;5023471;28;20226;-46
2022/03/25 03:03:51;;;;;;;59.80;33.72;;;3.00;99.90;;;;;;5023357;28;20202;-46
2022/03/25 03:06:18;;;;;;;68.43;39.78;;;3.00;99.90;;;;;;5023466;28;20382;-45
2022/03/25 03:08:45;;;;;;;65.45;36.10;;;3.10;99.90;;;;;;5023198;28;20220;-46
2022/03/25 03:11:13;;;;;;;55.75;34.90;;;3.00;99.90;;;;;;5023826;28;20206;-46
2022/03/25 03:13:44;;;;;;;53.35;35.20;;;3.00;99.90;;;;;;5023493;28;20268;-46
2022/03/25 03:16:12;;;;;;;62.40;39.83;;;2.90;99.90;;;;;;5023590;28;20258;-45
2022/03/25 03:18:40;;;;;;;66.25;36.00;;;2.90;99.90;;;;;;5023035;28;20453;-48
2022/03/25 03:21:08;;;;;;;72.90;35.42;;;2.80;99.90;;;;;;5023266;28;20459;-47
2022/03/25 03:23:35;;;;;;;69.85;33.60;;;2.70;99.90;;;;;;5023719;28;20731;-46
2022/03/25 03:26:03;;;;;;;65.35;35.45;;;2.60;99.90;;;;;;5023510;28;20473;-45
2022/03/25 03:28:30;;;;;;;56.70;34.90;;;2.60;99.90;;;;;;5024638;28;20222;-45
2022/03/25 03:30:57;;;;;;;74.68;39.40;;;2.60;99.90;;;;;;5022310;28;20198;-47
2022/03/25 03:33:25;;;;;;;62.50;34.95;;;2.60;99.90;;;;;;5022398;28;20206;-45
2022/03/25 03:35:52;;;;;;;60.28;39.13;;;2.60;99.90;;;;;;5022183;28;20203;-47
2022/03/25 03:38:19;;;;;;;54.08;35.33;;;2.60;99.90;;;;;;5022774;28;20264;-47
2022/03/25 03:40:47;;;;;;;62.05;36.03;;;2.50;99.90;;;;;;5022817;28;20206;-46
2022/03/25 03:43:15;;;;;;;65.22;38.80;;;2.50;99.90;;;;;;5022841;28;20310;-47
2022/03/25 03:45:42;;;;;;;64.38;38.40;;;2.50;99.90;;;;;;5022799;28;20198;-49
2022/03/25 03:48:11;;;;;;;75.18;38.83;;;2.60;99.90;;;;;;5022699;28;20514;-46
2022/03/25 03:50:38;;;;;;;65.05;40.00;;;2.50;99.90;;;;;;5022896;28;20424;-46
2022/03/25 03:53:06;;;;;;;70.13;37.35;;;2.50;99.90;;;;;;5022078;28;20440;-45
2022/03/25 03:55:35;;;;;;;57.63;36.33;;;2.50;99.90;;;;;;5026875;28;20202;-48
2022/03/25 03:58:02;;;;;;;60.65;40.22;;;2.40;99.90;;;;;;5024626;28;20237;-47
2022/03/25 04:00:29;;;;;;;64.38;37.50;;;2.40;99.90;;;;;;5022960;28;20232;-46
2022/03/25 04:02:57;;;;;;;60.53;37.95;;;2.30;99.90;;;;;;5022298;28;20229;-45
2022/03/25 04:05:24;;;;;;;75.55;38.97;;;2.40;99.90;;;;;;5022843;28;20199;-46
2022/03/25 04:07:52;;;;;;;70.63;39.97;;;2.50;99.90;;;;;;5022696;28;20222;-46
2022/03/25 04:10:20;;;;;;;68.57;41.38;;;2.50;99.90;;;;;;5021525;28;20265;-47
2022/03/25 04:12:47;;;;;;;69.47;37.72;;;2.50;99.90;;;;;;5022147;28;20202;-47
2022/03/25 04:15:15;;;;;;;63.00;37.42;;;2.50;99.90;;;;;;5022496;28;20202;-46
2022/03/25 04:17:44;;;;;;;83.10;43.13;;;2.50;99.90;;;;;;5022079;28;20211;-46
2022/03/25 04:20:14;;;;;;;77.68;39.72;;;2.40;99.90;;;;;;5022443;28;20285;-45
2022/03/25 04:22:42;;;;;;;69.78;39.72;;;2.40;99.90;;;;;;5020765;28;20265;-47
2022/03/25 04:25:12;;;;;;;63.65;40.30;;;2.40;99.90;;;;;;5022232;28;20505;-46
2022/03/25 04:27:49;;;;;;;61.72;38.67;;;2.40;99.90;;;;;;5021933;28;20197;-46
2022/03/25 04:30:18;;;;;;;67.68;37.63;;;2.30;99.90;;;;;;5022440;28;20279;-47
2022/03/25 04:32:48;;;;;;;71.50;39.58;;;2.30;99.90;;;;;;5021835;28;20303;-47
2022/03/25 04:35:16;;;;;;;70.60;38.55;;;2.30;99.90;;;;;;5022649;28;20205;-46
2022/03/25 04:37:44;;;;;;;70.65;40.30;;;2.30;99.90;;;;;;5022463;28;20234;-47
2022/03/25 04:40:13;;;;;;;73.28;39.22;;;2.30;99.90;;;;;;5022640;28;20561;-46
2022/03/25 04:42:41;;;;;;;77.28;39.28;;;2.20;99.90;;;;;;5022772;28;20254;-47
2022/03/25 04:45:08;;;;;;;67.63;37.65;;;2.20;99.90;;;;;;5022641;28;20433;-44
2022/03/25 04:47:36;;;;;;;63.95;36.05;;;2.30;99.90;;;;;;5023827;28;20277;-47
2022/03/25 04:50:03;;;;;;;58.63;37.22;;;2.30;99.90;;;;;;5027744;28;20226;-48
2022/03/25 04:52:30;;;;;;;64.05;37.97;;;2.30;99.90;;;;;;5027396;28;20237;-50
2022/03/25 04:54:57;;;;;;;78.82;40.97;;;2.30;99.90;;;;;;5026371;28;20458;-47
2022/03/25 04:57:25;;;;;;;76.85;40.65;;;2.30;99.90;;;;;;5025779;28;20202;-47
2022/03/25 04:59:52;;;;;;;70.80;42.80;;;2.40;99.90;;;;;;5023217;28;20459;-45
2022/03/25 05:02:20;;;;;;;78.47;41.17;;;2.40;99.90;;;;;;5022148;28;20271;-47
2022/03/25 05:04:47;;;;;;;73.20;40.78;;;2.40;99.90;;;;;;5020361;28;20198;-47
2022/03/25 05:07:16;;;;;;;71.28;40.50;;;2.40;99.90;;;;;;5021977;28;20253;-46
2022/03/25 05:09:44;;;;;;;80.05;45.17;;;2.70;99.90;;;;;;5021913;28;20438;-45
2022/03/25 05:12:14;;;;;;;69.57;37.35;;;2.80;99.90;;;;;;5021620;28;20640;-48
2022/03/25 05:14:41;;;;;;;66.55;37.92;;;3.00;99.90;;;;;;5021495;28;20206;-47
2022/03/25 05:17:09;;;;;;;70.05;40.40;;;3.20;99.90;;;;;;5021092;28;20199;-46
2022/03/25 05:19:36;;;;;;;72.20;41.03;;;3.30;99.90;;;;;;5020965;28;20220;-47
2022/03/25 05:22:05;;;;;;;64.10;39.80;;;3.60;99.90;;;;;;5020925;28;20546;-46
2022/03/25 05:24:33;;;;;;;75.03;41.40;;;3.80;99.90;;;;;;5021155;28;20213;-47
2022/03/25 05:27:02;;;;;;;73.88;36.65;;;4.00;99.90;;;;;;5021403;28;20199;-45
2022/03/25 05:29:30;;;;;;;81.55;39.60;;;4.30;99.90;;;;;;5020641;28;20454;-46
2022/03/25 05:31:57;;;;;;;70.18;38.97;;;4.60;99.90;;;;;;5020937;28;20518;-46
2022/03/25 05:34:24;;;;;;;76.93;36.85;;;4.70;99.90;;;;;;5021391;28;20259;-47
2022/03/25 05:36:52;;;;;;;76.63;38.13;;;5.10;99.90;;;;;;5021062;28;20196;-46
2022/03/25 05:39:19;;;;;;;67.35;37.47;;;5.70;99.90;;;;;;5020852;28;20602;-45
2022/03/25 05:41:47;;;;;;;66.40;37.03;;;6.10;99.90;;;;;;5020973;28;20267;-47
2022/03/25 05:44:14;;;;;;;66.72;34.55;;;6.40;99.90;;;;;;5020698;28;20546;-46
2022/03/25 05:46:41;;;;;;;68.75;37.10;;;6.80;99.90;;;;;;5020925;28;20393;-46
2022/03/25 05:49:09;;;;;;;58.22;32.88;;;7.30;99.90;;;;;;5029821;23;20245;-54
2022/03/25 05:51:37;;;;;;;58.92;35.05;;;8.00;99.90;;;;;;5013830;28;20330;-53
2022/03/25 05:54:04;;;;;;;53.75;34.42;;;8.50;99.90;;;;;;5016994;28;20652;-49
2022/03/25 05:56:32;;;;;;;64.32;34.30;;;9.00;99.90;;;;;;5020105;28;20403;-51
2022/03/25 05:58:59;;;;;;;62.55;36.08;;;9.50;99.90;;;;;;5023651;28;20222;-54
2022/03/25 06:01:26;;;;;;;55.78;35.13;;;9.70;99.90;;;;;;5039599;28;20283;-49
2022/03/25 06:03:54;;;;;;;60.40;36.20;;;10.00;99.90;;;;;;5039270;28;20507;-52
2022/03/25 06:06:22;;;;;;;62.28;36.20;;;10.30;99.90;;;;;;5039881;28;20199;-51
2022/03/25 06:08:50;;;;;;;59.78;34.38;;;10.80;99.90;;;;;;5039053;28;20254;-49
2022/03/25 06:11:18;;;;;;;101.63;39.15;;;11.30;99.90;;;;;;5039318;28;20196;-51
2022/03/25 06:13:45;;;;;;;68.05;35.55;;;11.70;99.90;;;;;;5039384;28;20416;-51
2022/03/25 06:16:12;;;;;;;83.72;36.40;;;12.10;99.90;;;;;;5039137;28;20271;-52
2022/03/25 06:18:41;;;;;;;51.17;33.20;;;12.80;99.90;;;;;;5041092;28;20275;-52
2022/03/25 06:21:08;;;;;;;57.22;32.53;;;13.20;99.90;;;;;;5040424;28;20514;-54
2022/03/25 06:23:35;;;;;;;60.50;34.80;;;13.80;98.00;;;;;;5040035;28;20222;-49
2022/03/25 06:26:05;;;;;;;53.57;33.40;;;14.20;96.30;;;;;;5039980;28;20678;-51
2022/03/25 06:28:32;;;;;;;35.63;26.97;;;14.60;95.10;;;;;;5039436;28;20449;-52
2022/03/25 06:30:59;;;;;;;56.33;35.17;;;15.20;93.30;;;;;;5039586;28;20683;-54
2022/03/25 06:33:27;;;;;;;52.63;34.60;;;16.00;91.00;;;;;;5039382;28;20472;-50
2022/03/25 06:35:55;;;;;;;48.87;31.67;;;17.10;87.70;;;;;;5039355;28;20407;-48
2022/03/25 06:38:23;;;;;;;74.70;39.30;;;16.60;82.90;;;;;;5038930;28;20479;-54
2022/03/25 06:40:52;;;;;;;57.60;34.40;;;17.00;83.20;;;;;;5039445;28;20476;-51
2022/03/25 06:43:20;;;;;;;53.50;34.57;;;18.10;78.50;;;;;;5038915;28;20441;-54
2022/03/25 06:45:47;;;;;;;53.60;32.33;;;18.40;75.10;;;;;;5038724;28;20607;-51
2022/03/25 06:48:15;;;;;;;57.97;32.77;;;19.50;71.40;;;;;;5038596;28;20400;-54
2022/03/25 06:50:43;;;;;;;55.13;32.07;;;20.00;66.90;;;;;;5034196;28;20684;-46
2022/03/25 06:53:13;;;;;;;53.40;32.53;;;20.70;64.80;;;;;;5039325;28;20419;-56
2022/03/25 06:55:41;;;;;;;52.97;33.90;;;21.10;62.60;;;;;;5038694;28;20484;-51
2022/03/25 06:58:09;;;;;;;43.30;31.73;;;21.20;60.40;;;;;;5038952;28;20412;-52
2022/03/25 07:00:37;;;;;;;51.17;33.03;;;21.10;59.20;;;;;;5038691;28;20424;-48
2022/03/25 07:03:07;;;;;;;47.27;29.70;;;20.50;59.80;;;;;;5038873;28;20428;-53
2022/03/25 07:05:36;;;;;;;43.90;29.50;;;20.30;60.00;;;;;;5038826;28;20434;-56
2022/03/25 07:08:04;;;;;;;50.43;30.70;;;21.40;58.70;;;;;;5038927;28;20400;-56
2022/03/25 07:10:32;;;;;;;49.70;30.77;;;22.20;56.70;;;;;;5038678;28;20507;-53
2022/03/25 07:13:00;;;;;;;40.03;28.77;;;22.90;54.70;;;;;;5038475;28;20400;-55
2022/03/25 07:15:29;;;;;;;39.67;30.00;;;22.70;54.50;;;;;;5038447;28;20434;-51
2022/03/25 07:17:56;;;;;;;47.07;29.80;;;23.00;53.70;;;;;;5038093;28;20400;-56
2022/03/25 07:20:25;;;;;;;52.23;31.17;;;23.00;52.80;;;;;;5038580;28;20637;-53
2022/03/25 07:22:53;;;;;;;45.17;29.60;;;22.80;53.30;;;;;;5038204;28;20802;-52
2022/03/25 07:25:21;;;;;;;44.90;26.63;;;23.40;52.30;;;;;;5038962;28;20496;-50
2022/03/25 07:27:48;;;;;;;45.60;28.87;;;23.10;52.10;;;;;;5039160;28;20441;-54
2022/03/25 07:30:17;;;;;;;43.07;30.07;;;23.60;51.10;;;;;;5041816;28;20437;-56
2022/03/25 07:32:45;;;;;;;46.53;30.00;;;23.90;50.40;;;;;;5030836;28;20546;-53
2022/03/25 07:35:16;;;;;;;44.80;27.17;;;24.30;49.70;;;;;;5034982;28;20436;-54
2022/03/25 07:37:44;;;;;;;30.43;26.10;;;24.10;49.40;;;;;;5041829;28;20437;-55
2022/03/25 07:40:14;;;;;;;41.00;24.53;;;24.20;48.90;;;;;;5042712;28;20454;-51
2022/03/25 07:42:43;;;;;;;38.53;26.37;;;24.20;48.10;;;;;;5041953;28;20478;-57
2022/03/25 07:45:13;;;;;;;42.10;26.33;;;24.80;47.90;;;;;;5041716;28;20770;-52
2022/03/25 07:47:42;;;;;;;33.40;25.53;;;25.30;46.90;;;;;;5040558;28;20419;-54
2022/03/25 07:50:11;;;;;;;41.67;25.63;;;25.90;46.50;;;;;;5041798;28;20504;-55
2022/03/25 07:52:39;;;;;;;42.77;26.60;;;25.70;45.90;;;;;;5041599;28;20436;-54
2022/03/25 07:55:09;;;;;;;34.23;24.60;;;26.40;45.70;;;;;;5041626;28;20466;-51
2022/03/25 07:57:38;;;;;;;31.20;24.63;;;27.30;44.70;;;;;;5041147;28;20667;-54
2022/03/25 08:00:13;;;;;;;38.07;22.60;;;26.50;44.30;;;;;;5041325;28;20498;-53
2022/03/25 08:02:42;;;;;;;29.77;21.93;;;26.20;44.20;;;;;;5041653;28;20541;-53
2022/03/25 08:05:10;;;;;;;32.30;23.30;;;26.50;44.50;;;;;;5041610;28;20652;-55
2022/03/25 08:08:03;;;;;;;27.87;20.40;;;26.00;44.60;;;;;;5041795;28;20460;-51
2022/03/25 08:10:32;;;;;;;38.83;24.87;;;26.40;43.20;;;;;;5038589;28;20475;-53
2022/03/25 08:13:01;;;;;;;33.13;22.40;;;26.20;43.70;;;;;;5041562;28;20763;-53
2022/03/25 08:15:30;;;;;;;33.00;24.67;;;26.90;43.00;;;;;;5041574;28;20478;-54
2022/03/25 08:18:06;;;;;;;27.43;21.87;;;27.00;42.90;;;;;;5041266;28;20469;-56
2022/03/25 08:20:41;;;;;;;32.87;23.80;;;26.50;42.70;;;;;;5041098;28;20485;-53
2022/03/25 08:28:59;;;;;;;32.53;23.20;;;27.40;41.80;;;;;;5041303;28;20506;-56
2022/03/25 08:31:45;;;;;;;25.13;19.50;;;27.50;40.90;;;;;;5031508;28;20574;-55
2022/03/25 08:34:15;;;;;;;28.90;20.63;;;27.20;41.10;;;;;;5026439;28;20661;-55
2022/03/25 08:36:44;;;;;;;25.93;20.33;;;26.90;41.40;;;;;;5032950;28;20481;-53
2022/03/25 08:39:12;;;;;;;24.80;20.07;;;26.80;40.90;;;;;;5035470;28;20512;-50
2022/03/25 08:41:41;;;;;;;29.90;21.23;;;26.70;41.00;;;;;;5039473;28;20422;-53
2022/03/25 08:44:16;;;;;;;28.83;21.60;;;26.40;40.70;;;;;;5037831;28;20715;-51
2022/03/25 08:46:42;;;;;;;30.27;19.80;;;25.80;41.50;;;;;;5040084;28;20692;-55
2022/03/25 08:49:10;;;;;;;30.47;21.50;;;26.20;41.60;;;;;;5040623;28;20459;-54
2022/03/25 08:51:38;;;;;;;28.80;20.50;;;26.30;41.20;;;;;;5040549;28;20434;-56
2022/03/25 08:54:09;;;;;;;32.10;19.90;;;26.90;40.30;;;;;;5037754;28;20491;-57
2022/03/25 08:56:37;;;;;;;30.57;20.50;;;27.20;39.70;;;;;;5031825;28;20612;-57
2022/03/25 08:59:04;;;;;;;35.57;20.97;;;26.90;39.90;;;;;;5039012;28;20807;-51
2022/03/25 09:01:33;;;;;;;27.53;20.03;;;27.60;39.90;;;;;;5040455;28;20458;-54
2022/03/25 09:04:02;;;;;;;24.20;18.83;;;27.30;40.70;;;;;;5039498;28;20689;-52
2022/03/25 09:06:29;;;;;;;27.83;20.47;;;26.80;40.20;;;;;;5037187;28;20486;-54
2022/03/25 09:08:56;;;;;;;29.20;19.40;;;26.30;40.40;;;;;;5039315;28;20433;-55
2022/03/25 09:11:26;;;;;;;29.27;19.40;;;25.10;41.30;;;;;;5037318;28;20427;-55
2022/03/25 09:13:54;;;;;;;25.10;17.47;;;25.00;41.50;;;;;;5039151;28;20405;-54
2022/03/25 09:16:21;;;;;;;20.03;15.90;;;24.20;41.70;;;;;;5040721;28;20405;-56
2022/03/25 09:18:49;;;;;;;22.10;17.97;;;24.10;42.60;;;;;;5039488;28;20463;-53
2022/03/25 09:21:16;;;;;;;27.83;15.80;;;24.00;42.70;;;;;;5040595;28;20489;-55
2022/03/25 09:23:44;;;;;;;24.50;17.40;;;24.80;41.00;;;;;;5039896;28;20566;-55
2022/03/25 09:26:11;;;;;;;26.33;15.80;;;24.40;42.40;;;;;;5036935;28;20592;-51
2022/03/25 09:28:38;;;;;;;24.40;16.90;;;23.50;42.40;;;;;;5041041;28;20459;-53
2022/03/25 09:31:06;;;;;;;21.40;16.77;;;21.60;45.90;;;;;;5040348;28;20444;-55
2022/03/25 09:33:33;;;;;;;23.57;15.40;;;20.40;47.20;;;;;;5035993;28;20535;-50
2022/03/25 09:36:01;;;;;;;30.67;16.80;;;19.40;49.00;;;;;;5040944;28;20689;-51
2022/03/25 09:38:29;;;;;;;20.57;14.40;;;19.00;49.50;;;;;;5039821;28;20738;-54
2022/03/25 09:41:03;;;;;;;21.40;16.03;;;18.70;49.60;;;;;;5038980;28;20774;-49
2022/03/25 09:43:31;;;;;;;19.63;14.43;;;18.00;50.10;;;;;;5039665;28;20478;-54
2022/03/25 09:45:58;;;;;;;23.13;14.37;;;17.50;51.30;;;;;;5039294;28;20491;-50
2022/03/25 09:48:26;;;;;;;21.70;14.27;;;17.70;50.50;;;;;;5039970;28;20471;-53
2022/03/25 09:51:01;;;;;;;20.17;14.77;;;17.50;51.00;;;;;;5038852;28;20392;-54
2022/03/25 09:53:44;;;;;;;17.00;12.50;;;17.20;51.80;;;;;;5039366;28;20424;-51
2022/03/25 09:56:14;;;;;;;20.53;12.93;;;17.10;52.00;;;;;;5039447;28;20457;-49
2022/03/25 09:58:42;;;;;;;21.50;14.23;;;17.00;51.70;;;;;;5039544;28;20731;-52
2022/03/25 10:01:09;;;;;;;28.00;17.90;;;16.90;51.50;;;;;;5039650;28;20430;-53
2022/03/25 10:03:39;;;;;;;20.63;15.10;;;16.30;52.00;;;;;;5038742;28;20801;-52
2022/03/25 10:06:12;;;;;;;24.20;12.93;;;16.00;52.90;;;;;;5039517;28;20579;-56
2022/03/25 10:08:45;;;;;;;20.90;12.30;;;15.80;53.30;;;;;;5038972;28;20429;-55
2022/03/25 10:11:19;;;;;;;18.30;13.03;;;15.80;53.10;;;;;;5039372;28;20425;-51
2022/03/25 10:13:46;;;;;;;24.00;12.90;;;16.00;53.40;;;;;;5039233;28;20787;-57
2022/03/25 10:16:30;;;;;;;22.50;12.83;;;15.70;53.30;;;;;;5039295;28;20480;-55
2022/03/25 10:19:00;;;;;;;18.27;12.20;;;15.50;53.00;;;;;;5038920;28;20424;-55
2022/03/25 10:21:48;;;;;;;17.63;11.90;;;15.70;52.80;;;;;;5035478;28;20503;-52
2022/03/25 10:24:18;;;;;;;15.10;11.57;;;15.90;51.90;;;;;;5031612;28;20794;-55
2022/03/25 10:26:46;;;;;;;17.53;12.43;;;15.70;52.40;;;;;;5039122;28;20455;-52
2022/03/25 10:29:24;;;;;;;16.17;10.87;;;15.70;52.90;;;;;;5030960;28;20511;-52
2022/03/25 10:32:10;;;;;;;21.80;13.00;;;15.70;52.60;;;;;;5039058;28;20462;-55
2022/03/25 10:34:38;;;;;;;19.13;12.90;;;15.70;52.60;;;;;;5039489;28;20412;-51
2022/03/25 10:37:10;;;;;;;16.30;11.13;;;15.70;52.80;;;;;;5038977;28;20430;-52
2022/03/25 10:39:40;;;;;;;26.83;13.03;;;15.70;53.70;;;;;;5039681;28;20450;-53
2022/03/25 10:42:08;;;;;;;19.40;12.63;;;15.80;53.50;;;;;;5038904;28;20452;-53
2022/03/25 10:44:41;;;;;;;20.60;12.03;;;15.90;53.70;;;;;;5039151;28;20527;-54
2022/03/25 10:47:15;;;;;;;17.13;11.87;;;16.00;53.70;;;;;;5039073;28;20411;-49
2022/03/25 10:49:46;;;;;;;17.53;11.47;;;16.00;54.30;;;;;;5039180;28;20484;-51
2022/03/25 10:52:25;;;;;;;28.70;13.50;;;16.00;53.90;;;;;;5038920;28;20463;-53
2022/03/25 10:55:27;;;;;;;17.83;11.60;;;16.10;53.50;;;;;;5038640;28;20724;-54
2022/03/25 10:58:07;;;;;;;19.83;11.87;;;16.10;52.30;;;;;;5033365;28;20524;-52
2022/03/25 11:00:39;;;;;;;21.50;11.60;;;16.10;53.60;;;;;;5033816;28;20598;-51
2022/03/25 11:03:08;;;;;;;20.33;12.57;;;16.20;52.90;;;;;;5041844;28;20486;-51
2022/03/25 11:05:42;;;;;;;16.67;11.40;;;16.10;53.50;;;;;;5040934;28;20425;-51
2022/03/25 11:08:10;;;;;;;18.13;13.80;;;16.20;53.50;;;;;;5040655;28;20460;-51
2022/03/25 11:10:38;;;;;;;19.30;12.33;;;16.20;53.00;;;;;;5042163;28;20428;-53
2022/03/25 11:13:08;;;;;;;20.97;12.13;;;16.10;53.20;;;;;;5039476;28;20741;-55
2022/03/25 11:15:39;;;;;;;18.33;11.63;;;16.20;53.70;;;;;;5039610;28;20437;-50
2022/03/25 11:18:07;;;;;;;15.67;10.57;;;16.30;53.10;;;;;;5042227;28;20517;-53
2022/03/25 11:20:34;;;;;;;18.20;11.20;;;16.40;53.20;;;;;;5042324;28;20842;-51
2022/03/25 11:23:14;;;;;;;16.70;11.37;;;16.30;51.90;;;;;;5042333;28;20400;-50
2022/03/25 11:25:46;;;;;;;14.40;11.30;;;16.30;51.50;;;;;;5042148;28;20451;-51
2022/03/25 11:28:20;;;;;;;21.70;11.33;;;16.30;50.60;;;;;;5042494;28;20458;-52
2022/03/25 11:31:01;;;;;;;22.07;11.00;;;16.10;51.30;;;;;;5042491;28;20441;-54
2022/03/25 11:33:29;;;;;;;24.13;13.57;;;16.20;52.30;;;;;;5042641;28;20404;-53
2022/03/25 11:36:15;;;;;;;18.00;12.40;;;16.30;53.10;;;;;;5041862;28;20754;-52
2022/03/25 11:38:47;;;;;;;18.17;12.20;;;16.40;53.00;;;;;;5041651;28;20648;-53
2022/03/25 11:41:26;;;;;;;22.63;12.00;;;16.40;52.80;;;;;;5042250;28;20756;-52
2022/03/25 11:44:14;;;;;;;17.97;10.87;;;16.30;52.20;;;;;;5041113;28;20500;-52
2022/03/25 11:46:59;;;;;;;17.27;12.40;;;16.10;52.80;;;;;;5031738;28;20408;-54
2022/03/25 11:49:29;;;;;;;17.43;11.17;;;16.00;52.90;;;;;;5047171;23;20486;-47
2022/03/25 11:52:18;;;;;;;16.37;11.40;;;16.00;52.70;;;;;;5014565;28;20785;-50
2022/03/25 11:54:45;;;;;;;21.87;12.30;;;16.10;52.70;;;;;;5019486;28;20835;-49
2022/03/25 11:57:36;;;;;;;17.90;11.70;;;16.30;53.00;;;;;;5014988;28;20406;-50
2022/03/25 12:00:25;;;;;;;16.17;10.40;;;16.40;52.40;;;;;;5004244;28;20461;-47
2022/03/25 12:03:04;;;;;;;16.40;9.40;;;16.40;52.40;;;;;;5005004;28;20418;-46
2022/03/25 12:05:33;;;;;;;17.03;10.47;;;16.40;52.30;;;;;;5003408;28;20434;-48
2022/03/25 12:08:21;;;;;;;19.60;10.90;;;16.40;52.40;;;;;;5003336;28;20465;-49
2022/03/25 12:10:52;;;;;;;15.90;9.97;;;16.40;51.50;;;;;;5002532;28;20453;-47
2022/03/25 12:13:21;;;;;;;13.80;8.90;;;16.40;51.50;;;;;;5001081;28;20638;-47
2022/03/25 12:15:53;;;;;;;18.00;11.17;;;16.40;51.40;;;;;;5002470;28;20429;-52
2022/03/25 12:18:44;;;;;;;14.20;9.37;;;16.40;51.30;;;;;;5003197;28;20436;-47
2022/03/25 12:21:24;;;;;;;15.10;10.03;;;16.40;50.90;;;;;;5002774;28;20457;-50
2022/03/25 12:23:56;;;;;;;14.97;9.43;;;16.60;51.00;;;;;;5002852;28;20839;-49
2022/03/25 12:26:32;;;;;;;15.80;9.37;;;16.50;51.40;;;;;;5002414;28;20602;-51
2022/03/25 12:29:00;;;;;;;13.57;9.40;;;16.40;50.90;;;;;;5002234;28;20469;-47
2022/03/25 12:31:28;;;;;;;18.00;10.27;;;16.30;51.30;;;;;;5002418;28;20406;-48
2022/03/25 12:33:58;;;;;;;17.10;11.37;;;16.30;52.30;;;;;;5002247;28;20480;-48
2022/03/25 12:36:41;;;;;;;19.33;9.97;;;16.20;52.70;;;;;;5002964;28;20726;-51
2022/03/25 12:39:14;;;;;;;13.03;10.53;;;16.30;53.00;;;;;;4999675;28;20445;-54
2022/03/25 12:41:47;;;;;;;16.10;9.43;;;16.30;52.80;;;;;;4990729;28;20450;-48
2022/03/25 12:44:28;;;;;;;17.33;11.47;;;16.20;52.60;;;;;;5000218;28;20445;-51
2022/03/25 12:47:02;;;;;;;20.97;10.53;;;16.30;52.40;;;;;;4994709;28;20406;-50
2022/03/25 12:49:30;;;;;;;16.03;10.60;;;16.10;52.20;;;;;;5001040;28;20472;-48
2022/03/25 12:52:00;;;;;;;21.90;9.47;;;15.90;52.00;;;;;;5001085;28;20477;-49